Time;durP1;ratioP1;P1;durP2;ratioP2;P2;SDS_P1;SDS_P2;PMS_P1;PMS_P2;Temp;Humidity;BMP_temperature;BMP_pressure;BME280_temperature;BME280_humidity;BME280_pressure;Samples;Min_cycle;Max_cycle;Signal;HPM_P1;HPM_P2
2022/01/21 00:00:24;;;;;;;13.40;12.30;;;1.50;99.90;;;;;;4925099;29;20443;-76
2022/01/21 00:02:51;;;;;;;13.57;12.47;;;1.50;99.90;;;;;;4929489;29;20477;-75
2022/01/21 00:05:20;;;;;;;13.23;12.13;;;1.50;99.90;;;;;;4926023;29;20984;-74
2022/01/21 00:07:49;;;;;;;14.00;12.70;;;1.50;99.90;;;;;;4912575;29;20487;-76
2022/01/21 00:10:16;;;;;;;13.07;12.07;;;1.50;99.90;;;;;;4926445;29;20438;-77
2022/01/21 00:12:43;;;;;;;13.53;12.23;;;1.50;99.90;;;;;;4929873;29;20445;-76
2022/01/21 00:15:11;;;;;;;13.90;12.80;;;1.50;99.90;;;;;;4926860;29;20439;-77
2022/01/21 00:17:38;;;;;;;13.47;12.37;;;1.40;99.90;;;;;;4924117;29;20465;-77
2022/01/21 00:31:05;;;;;;;13.23;12.03;;;1.30;99.90;;;;;;4910335;29;20442;-76
2022/01/21 00:33:32;;;;;;;13.40;12.40;;;1.20;99.90;;;;;;4910420;29;20837;-76
2022/01/21 00:35:59;;;;;;;13.70;12.50;;;1.20;99.90;;;;;;4927632;29;20504;-76
2022/01/21 00:38:30;;;;;;;13.47;12.03;;;1.10;99.90;;;;;;4909674;29;20541;-76
2022/01/21 00:41:00;;;;;;;13.23;11.83;;;1.10;99.90;;;;;;4909453;29;20449;-76
2022/01/21 00:43:31;;;;;;;14.33;12.83;;;1.10;99.90;;;;;;4923371;29;20516;-76
2022/01/21 00:45:58;;;;;;;13.23;12.23;;;1.00;99.90;;;;;;4910834;29;20474;-75
2022/01/21 00:48:26;;;;;;;12.70;11.80;;;1.00;99.90;;;;;;4923217;29;20526;-76
2022/01/21 00:50:53;;;;;;;12.60;11.70;;;1.00;99.90;;;;;;4911421;29;20518;-76
2022/01/21 00:53:21;;;;;;;13.03;12.00;;;1.00;99.90;;;;;;4906565;29;20516;-77
2022/01/21 00:55:50;;;;;;;12.97;11.97;;;1.00;99.90;;;;;;4909479;29;20858;-76
2022/01/21 00:58:16;;;;;;;12.63;11.60;;;0.90;99.90;;;;;;4907067;29;20476;-76
2022/01/21 01:00:44;;;;;;;12.53;11.53;;;0.90;99.90;;;;;;4927069;29;20436;-76
2022/01/21 01:03:15;;;;;;;12.27;11.27;;;0.90;99.90;;;;;;4908095;29;20513;-77
2022/01/21 01:05:42;;;;;;;12.77;11.70;;;0.80;99.90;;;;;;4921595;29;20447;-77
2022/01/21 01:08:09;;;;;;;12.30;11.40;;;0.80;99.90;;;;;;4948083;23;20583;-75
2022/01/21 01:10:47;;;;;;;12.80;11.80;;;0.90;99.90;;;;;;4906501;29;20445;-76
2022/01/21 01:21:43;;;;;;;12.37;11.40;;;0.80;99.90;;;;;;4892074;29;20468;-76
2022/01/21 01:29:43;;;;;;;12.77;11.60;;;0.90;99.90;;;;;;4897658;29;20442;-75
2022/01/21 01:32:10;;;;;;;13.07;11.97;;;0.90;99.90;;;;;;4888978;29;20450;-76
2022/01/21 01:34:37;;;;;;;13.23;11.97;;;1.00;99.90;;;;;;4894383;29;20478;-77
2022/01/21 01:37:11;;;;;;;15.93;13.93;;;1.00;99.90;;;;;;4891670;29;20501;-75
2022/01/21 01:39:42;;;;;;;13.03;12.03;;;1.00;99.90;;;;;;4897641;29;20454;-74
2022/01/21 01:42:40;;;;;;;15.07;12.00;;;1.00;99.90;;;;;;4890099;29;20488;-76
2022/01/21 01:50:37;;;;;;;12.30;11.20;;;1.10;99.90;;;;;;4911326;29;20492;-76
2022/01/21 01:53:06;;;;;;;12.10;11.20;;;1.10;99.90;;;;;;4910016;29;20508;-75
2022/01/21 01:55:34;;;;;;;12.57;11.43;;;1.10;99.90;;;;;;4910293;29;20987;-76
2022/01/21 01:58:01;;;;;;;13.13;11.83;;;1.10;99.90;;;;;;4909722;29;20570;-77
2022/01/21 02:00:29;;;;;;;12.23;11.23;;;1.10;99.90;;;;;;4893913;29;20462;-76
2022/01/21 02:03:05;;;;;;;12.77;11.60;;;1.10;99.90;;;;;;4891215;29;21007;-76
2022/01/21 02:05:31;;;;;;;12.43;11.53;;;1.10;99.90;;;;;;4905195;29;20829;-75
2022/01/21 02:07:58;;;;;;;12.30;11.20;;;1.10;99.90;;;;;;4892276;29;20552;-75
2022/01/21 02:10:25;;;;;;;12.07;11.20;;;1.10;99.90;;;;;;4908259;29;20758;-76
2022/01/21 02:13:02;;;;;;;12.60;11.60;;;1.10;99.90;;;;;;4915190;29;20939;-76
2022/01/21 02:15:34;;;;;;;12.00;11.07;;;1.10;99.90;;;;;;4917350;29;20465;-75
2022/01/21 02:23:31;;;;;;;12.70;11.80;;;1.20;99.90;;;;;;4898631;29;20473;-76
2022/01/21 02:25:58;;;;;;;12.90;11.77;;;1.10;99.90;;;;;;4907651;29;20499;-76
2022/01/21 02:28:25;;;;;;;12.30;11.50;;;1.10;99.90;;;;;;4890514;29;20470;-75
2022/01/21 02:30:56;;;;;;;13.60;12.33;;;1.10;99.90;;;;;;4890845;29;20535;-76
2022/01/21 02:33:24;;;;;;;12.70;11.53;;;1.10;99.90;;;;;;4894173;29;20987;-76
2022/01/21 02:35:51;;;;;;;13.50;11.90;;;1.10;99.90;;;;;;4891922;29;20446;-75
2022/01/21 02:38:19;;;;;;;12.30;11.40;;;1.10;99.90;;;;;;4904944;29;20977;-76
2022/01/21 02:40:47;;;;;;;12.43;11.57;;;1.10;99.90;;;;;;4906219;29;20452;-76
2022/01/21 02:43:15;;;;;;;13.10;12.10;;;1.20;99.90;;;;;;4908304;29;20493;-75
2022/01/21 02:45:45;;;;;;;13.20;12.00;;;1.20;99.90;;;;;;4887063;29;20510;-76
2022/01/21 02:48:12;;;;;;;12.97;11.93;;;1.20;99.90;;;;;;4908586;29;20483;-76
2022/01/21 02:50:45;;;;;;;12.77;11.67;;;1.20;99.90;;;;;;4892161;29;20457;-76
2022/01/21 02:53:25;;;;;;;13.10;12.00;;;1.20;99.90;;;;;;4888788;29;20464;-76
2022/01/21 02:55:53;;;;;;;12.83;11.63;;;1.20;99.90;;;;;;4905658;29;20500;-76
2022/01/21 02:58:21;;;;;;;14.23;12.83;;;1.20;99.90;;;;;;4892413;29;20477;-75
2022/01/21 03:00:48;;;;;;;13.07;11.83;;;1.20;99.90;;;;;;4893718;29;20620;-75
2022/01/21 03:03:15;;;;;;;12.93;11.83;;;1.20;99.90;;;;;;4908600;29;20541;-74
2022/01/21 03:05:42;;;;;;;12.87;11.80;;;1.20;99.90;;;;;;4903927;29;20839;-76
2022/01/21 03:08:09;;;;;;;13.47;12.13;;;1.20;99.90;;;;;;4901454;29;20493;-77
2022/01/21 03:10:36;;;;;;;13.00;12.00;;;1.20;99.90;;;;;;4904691;29;20466;-76
2022/01/21 03:13:04;;;;;;;13.90;12.80;;;1.20;99.90;;;;;;4890315;29;20539;-77
2022/01/21 03:15:31;;;;;;;13.03;11.73;;;1.10;99.90;;;;;;4907259;29;20443;-78
2022/01/21 03:17:58;;;;;;;12.73;11.53;;;1.10;99.90;;;;;;4890103;29;20808;-76
2022/01/21 03:20:25;;;;;;;15.47;13.27;;;1.10;99.90;;;;;;4892266;29;20450;-75
2022/01/21 03:22:52;;;;;;;13.57;12.63;;;1.10;99.90;;;;;;4891092;29;20841;-77
2022/01/21 03:25:19;;;;;;;13.67;12.33;;;1.10;99.90;;;;;;4886962;29;20457;-76
2022/01/21 03:27:46;;;;;;;12.83;11.80;;;1.10;99.90;;;;;;4888192;29;20475;-75
2022/01/21 03:30:14;;;;;;;13.67;12.50;;;1.10;99.90;;;;;;4889750;29;20886;-75
2022/01/21 03:32:49;;;;;;;13.73;12.33;;;1.10;99.90;;;;;;4890589;29;20866;-77
2022/01/21 03:35:16;;;;;;;12.90;11.83;;;1.10;99.90;;;;;;4890448;29;20456;-76
2022/01/21 03:37:43;;;;;;;13.57;12.47;;;1.10;99.90;;;;;;4889374;29;20566;-75
2022/01/21 03:40:11;;;;;;;12.43;11.47;;;1.20;99.90;;;;;;4909474;29;20450;-76
2022/01/21 03:42:38;;;;;;;12.60;11.80;;;1.30;99.90;;;;;;4881353;29;20479;-76
2022/01/21 03:45:07;;;;;;;13.60;12.20;;;1.30;99.90;;;;;;4881847;29;20453;-76
2022/01/21 03:47:35;;;;;;;13.10;12.13;;;1.40;99.90;;;;;;4888566;29;21016;-78
2022/01/21 03:50:19;;;;;;;13.50;12.50;;;1.40;99.90;;;;;;4895264;29;20475;-79
2022/01/21 03:52:46;;;;;;;13.40;12.40;;;1.40;99.90;;;;;;4897560;29;20497;-80
2022/01/21 03:55:13;;;;;;;13.50;12.30;;;1.40;99.90;;;;;;4900699;29;20437;-80
2022/01/21 03:57:40;;;;;;;13.30;12.00;;;1.40;99.90;;;;;;4887039;29;20481;-81
2022/01/21 04:00:12;;;;;;;14.20;13.00;;;1.40;99.90;;;;;;4887588;29;20544;-80
2022/01/21 04:02:43;;;;;;;12.67;11.73;;;1.40;99.90;;;;;;4904018;29;20475;-78
2022/01/21 04:05:15;;;;;;;14.20;12.80;;;1.40;99.90;;;;;;4895369;29;20477;-80
2022/01/21 04:07:42;;;;;;;12.80;12.00;;;1.40;99.90;;;;;;4894459;29;20497;-82
2022/01/21 04:10:11;;;;;;;12.90;11.80;;;1.40;99.90;;;;;;4910776;29;20910;-82
2022/01/21 04:12:38;;;;;;;14.30;13.10;;;1.40;99.90;;;;;;4898273;29;20450;-82
2022/01/21 04:15:07;;;;;;;14.00;12.67;;;1.40;99.90;;;;;;4899084;29;20455;-79
2022/01/21 04:17:35;;;;;;;13.03;12.03;;;1.30;99.90;;;;;;4897838;29;20462;-78
2022/01/21 04:20:05;;;;;;;13.40;12.20;;;1.30;99.90;;;;;;4908238;29;20467;-80
2022/01/21 04:22:33;;;;;;;13.47;12.47;;;1.30;99.90;;;;;;4888071;29;20834;-78
2022/01/21 04:25:00;;;;;;;14.37;13.10;;;1.30;99.90;;;;;;4896713;29;20445;-78
2022/01/21 04:27:28;;;;;;;13.17;12.17;;;1.20;99.90;;;;;;4892871;29;20487;-78
2022/01/21 04:29:55;;;;;;;13.53;12.33;;;1.20;99.90;;;;;;4906770;29;20464;-78
2022/01/21 04:32:27;;;;;;;13.53;12.40;;;1.20;99.90;;;;;;4907193;29;20712;-76
2022/01/21 04:34:54;;;;;;;13.20;12.00;;;1.20;99.90;;;;;;4896798;29;20463;-80
2022/01/21 04:37:22;;;;;;;13.10;11.90;;;1.20;99.90;;;;;;4891247;29;20867;-77
2022/01/21 04:39:59;;;;;;;12.30;11.27;;;1.20;99.90;;;;;;4888797;29;20514;-78
2022/01/21 04:47:55;;;;;;;13.47;12.17;;;1.20;99.90;;;;;;4891936;29;20828;-77
2022/01/21 04:50:25;;;;;;;13.67;12.57;;;1.20;99.90;;;;;;4891257;29;20466;-76
2022/01/21 04:52:55;;;;;;;13.70;12.20;;;1.20;99.90;;;;;;4893188;29;20443;-76
2022/01/21 04:55:38;;;;;;;13.23;12.20;;;1.20;99.90;;;;;;4884064;29;20517;-78
2022/01/21 04:58:05;;;;;;;13.63;12.43;;;1.20;99.90;;;;;;4888249;29;20478;-76
2022/01/21 05:00:33;;;;;;;14.50;13.20;;;1.10;99.90;;;;;;4890022;29;20443;-76
2022/01/21 05:03:01;;;;;;;12.13;11.03;;;1.10;99.90;;;;;;4890235;29;20570;-77
2022/01/21 05:05:29;;;;;;;12.37;11.37;;;1.10;99.90;;;;;;4906927;29;20463;-76
2022/01/21 05:08:00;;;;;;;11.83;10.70;;;1.10;99.90;;;;;;4891080;29;21065;-77
2022/01/21 05:10:28;;;;;;;12.17;11.27;;;1.10;99.90;;;;;;4889602;29;21020;-77
2022/01/21 05:12:55;;;;;;;12.80;11.73;;;1.10;99.90;;;;;;4891469;29;20449;-77
2022/01/21 05:15:28;;;;;;;13.40;12.07;;;1.10;99.90;;;;;;4895111;29;21198;-77
2022/01/21 05:17:56;;;;;;;12.43;11.43;;;1.00;99.90;;;;;;4893909;29;21010;-76
2022/01/21 05:20:39;;;;;;;13.37;12.00;;;1.00;99.90;;;;;;4893538;29;20452;-76
2022/01/21 05:23:31;;;;;;;12.93;11.73;;;1.00;99.90;;;;;;4904258;29;20488;-78
2022/01/21 05:25:58;;;;;;;12.10;11.10;;;1.00;99.90;;;;;;4894376;29;20468;-77
2022/01/21 05:28:25;;;;;;;13.77;12.40;;;1.00;99.90;;;;;;4896465;29;20572;-77
2022/01/21 05:31:09;;;;;;;13.00;11.70;;;1.00;99.90;;;;;;4893700;29;20839;-77
2022/01/21 05:33:54;;;;;;;12.70;11.70;;;1.00;99.90;;;;;;4910899;29;20466;-76
2022/01/21 05:36:46;;;;;;;13.03;11.90;;;1.00;99.90;;;;;;4892186;29;20868;-77
2022/01/21 05:39:24;;;;;;;13.53;12.30;;;1.00;99.90;;;;;;4889845;29;20557;-77
2022/01/21 05:41:56;;;;;;;13.10;11.77;;;1.00;99.90;;;;;;4890281;29;20481;-77
2022/01/21 05:47:46;;;;;;;12.90;11.80;;;1.10;99.90;;;;;;4912535;29;20542;-77
2022/01/21 05:50:42;;;;;;;12.87;11.90;;;1.10;99.90;;;;;;4845406;29;20444;-77
2022/01/21 05:53:35;;;;;;;13.30;12.20;;;1.10;99.90;;;;;;4886139;29;20452;-77
2022/01/21 05:56:24;;;;;;;13.57;12.37;;;1.10;99.90;;;;;;4909892;29;20454;-78
2022/01/21 05:59:12;;;;;;;14.23;12.73;;;1.10;99.90;;;;;;4909050;29;20759;-76
2022/01/21 06:01:39;;;;;;;14.03;12.63;;;1.10;99.90;;;;;;4892236;29;20449;-77
2022/01/21 06:04:07;;;;;;;12.90;11.90;;;1.10;99.90;;;;;;4909706;29;20476;-77
2022/01/21 06:06:34;;;;;;;13.90;12.53;;;1.10;99.90;;;;;;4890577;29;20450;-76
2022/01/21 06:09:02;;;;;;;13.33;12.33;;;1.20;99.90;;;;;;4896510;29;20455;-77
2022/01/21 06:11:31;;;;;;;13.30;12.17;;;1.10;99.90;;;;;;4890676;29;20460;-76
2022/01/21 06:13:59;;;;;;;14.97;13.40;;;1.10;99.90;;;;;;4906445;29;20491;-75
2022/01/21 06:16:27;;;;;;;13.20;12.20;;;1.10;99.90;;;;;;4892421;29;20446;-77
2022/01/21 06:18:54;;;;;;;13.53;12.00;;;1.00;99.90;;;;;;4892359;29;20516;-76
2022/01/21 06:21:21;;;;;;;13.93;12.63;;;1.10;99.90;;;;;;4894550;29;20468;-76
2022/01/21 06:23:48;;;;;;;14.57;13.17;;;1.10;99.90;;;;;;4893058;29;20566;-77
2022/01/21 06:26:15;;;;;;;13.80;12.67;;;1.10;99.90;;;;;;4911827;29;20457;-76
2022/01/21 06:28:43;;;;;;;13.07;12.07;;;1.10;99.90;;;;;;4908294;29;21002;-77
2022/01/21 06:31:10;;;;;;;13.53;12.23;;;1.10;99.90;;;;;;4903129;29;20461;-77
2022/01/21 06:33:37;;;;;;;13.73;12.73;;;1.10;99.90;;;;;;4906565;29;20458;-77
2022/01/21 06:36:04;;;;;;;15.67;13.77;;;1.10;99.90;;;;;;4907302;29;20464;-76
2022/01/21 06:38:31;;;;;;;13.73;12.60;;;1.10;99.90;;;;;;4893952;29;20522;-77
2022/01/21 06:40:58;;;;;;;14.93;13.53;;;1.10;99.90;;;;;;4910167;29;20439;-76
2022/01/21 06:43:24;;;;;;;14.73;13.33;;;1.10;99.90;;;;;;4890673;29;20479;-78
2022/01/21 06:45:52;;;;;;;13.57;12.37;;;1.20;99.90;;;;;;4909231;29;20445;-76
2022/01/21 06:48:20;;;;;;;14.30;13.07;;;1.10;99.90;;;;;;4905200;29;20475;-76
2022/01/21 06:50:47;;;;;;;14.33;13.00;;;1.10;99.90;;;;;;4907458;29;20772;-77
2022/01/21 06:53:14;;;;;;;14.27;13.03;;;1.10;99.90;;;;;;4909953;29;20445;-78
2022/01/21 06:55:41;;;;;;;14.33;12.90;;;1.10;99.90;;;;;;4909606;29;20450;-76
2022/01/21 06:58:07;;;;;;;15.03;13.57;;;1.10;99.90;;;;;;4910798;29;20467;-76
2022/01/21 07:00:35;;;;;;;15.37;13.93;;;1.10;99.90;;;;;;4906911;29;20462;-77
2022/01/21 07:03:03;;;;;;;14.47;13.17;;;1.10;99.90;;;;;;4913151;29;20503;-77
2022/01/21 07:05:30;;;;;;;15.57;14.07;;;1.20;99.90;;;;;;4908359;29;20960;-77
2022/01/21 07:07:58;;;;;;;14.70;13.17;;;1.20;99.90;;;;;;4939094;23;20921;-77
2022/01/21 07:10:27;;;;;;;15.00;13.50;;;1.20;99.90;;;;;;4927971;29;20527;-76
2022/01/21 07:12:54;;;;;;;14.27;13.23;;;1.20;99.90;;;;;;4927007;29;20451;-76
2022/01/21 07:15:20;;;;;;;14.37;13.20;;;1.30;99.90;;;;;;4927288;29;20448;-76
2022/01/21 07:17:52;;;;;;;17.00;12.73;;;1.30;99.90;;;;;;4908051;29;20511;-77
2022/01/21 07:20:21;;;;;;;13.30;12.10;;;1.30;99.90;;;;;;4920340;29;20478;-76
2022/01/21 07:22:48;;;;;;;14.67;13.20;;;1.40;99.90;;;;;;4922162;29;20480;-76
2022/01/21 07:25:15;;;;;;;15.20;13.47;;;1.40;99.90;;;;;;4924929;29;20478;-76
2022/01/21 07:27:44;;;;;;;14.27;12.87;;;1.40;99.90;;;;;;4907021;29;20482;-77
2022/01/21 07:30:12;;;;;;;14.80;13.27;;;1.40;99.90;;;;;;4907752;29;20457;-76
2022/01/21 07:32:39;;;;;;;15.17;13.70;;;1.40;99.90;;;;;;4902739;29;20461;-77
2022/01/21 07:35:09;;;;;;;15.50;14.20;;;1.50;99.90;;;;;;4924816;29;20938;-76
2022/01/21 07:37:40;;;;;;;14.97;13.57;;;1.50;99.90;;;;;;4925022;29;20474;-77
2022/01/21 07:40:08;;;;;;;14.30;13.10;;;1.50;99.90;;;;;;4923383;29;20456;-76
2022/01/21 07:42:38;;;;;;;14.10;12.90;;;1.50;99.90;;;;;;4923309;29;20462;-76
2022/01/21 07:45:07;;;;;;;14.60;13.30;;;1.40;99.90;;;;;;4925506;29;20549;-76
2022/01/21 07:47:34;;;;;;;15.53;13.90;;;1.40;99.90;;;;;;4919159;29;20477;-77
2022/01/21 07:50:00;;;;;;;15.30;14.00;;;1.50;99.90;;;;;;4919086;29;20462;-76
2022/01/21 07:52:27;;;;;;;14.90;13.50;;;1.50;99.90;;;;;;4910188;29;20452;-76
2022/01/21 07:54:55;;;;;;;14.70;13.43;;;1.60;99.90;;;;;;4907293;29;20793;-76
2022/01/21 07:57:22;;;;;;;15.37;13.97;;;1.60;99.90;;;;;;4926064;29;20977;-75
2022/01/21 07:59:49;;;;;;;14.93;13.50;;;1.60;99.90;;;;;;4924167;29;20448;-77
2022/01/21 08:02:17;;;;;;;14.63;13.23;;;1.70;99.90;;;;;;4926346;29;20473;-76
2022/01/21 08:04:43;;;;;;;15.07;13.73;;;1.70;99.90;;;;;;4923737;29;20480;-77
2022/01/21 08:07:11;;;;;;;14.67;13.33;;;1.70;99.90;;;;;;4903192;29;20834;-76
2022/01/21 08:09:41;;;;;;;14.90;13.70;;;1.70;99.90;;;;;;4923356;29;20449;-77
2022/01/21 08:12:11;;;;;;;15.33;13.93;;;1.70;99.90;;;;;;4924247;29;20445;-76
2022/01/21 08:14:41;;;;;;;18.60;15.37;;;1.80;99.90;;;;;;4917208;29;20447;-77
2022/01/21 08:17:08;;;;;;;15.03;13.53;;;1.90;99.90;;;;;;4907106;29;20508;-76
2022/01/21 08:19:35;;;;;;;15.20;13.77;;;1.90;99.90;;;;;;4926775;29;20440;-77
2022/01/21 08:22:02;;;;;;;14.80;13.47;;;1.90;99.90;;;;;;4925589;29;20481;-77
2022/01/21 08:24:28;;;;;;;14.23;13.03;;;2.00;99.90;;;;;;4913186;29;20487;-77
2022/01/21 08:26:55;;;;;;;14.30;13.07;;;2.00;99.90;;;;;;4904867;29;21019;-76
2022/01/21 08:29:23;;;;;;;14.20;12.80;;;2.10;99.90;;;;;;4925769;29;21627;-77
2022/01/21 08:31:50;;;;;;;14.70;13.30;;;2.10;99.90;;;;;;4926858;29;20435;-76
2022/01/21 08:34:17;;;;;;;14.77;13.40;;;2.20;99.90;;;;;;4931606;29;20443;-76
2022/01/21 08:36:46;;;;;;;15.70;14.00;;;2.20;99.90;;;;;;4923423;29;20459;-77
2022/01/21 08:39:13;;;;;;;15.00;13.70;;;2.20;99.90;;;;;;4917643;29;20810;-77
2022/01/21 08:41:40;;;;;;;15.00;13.57;;;2.30;99.90;;;;;;4924309;29;20449;-77
2022/01/21 08:44:07;;;;;;;15.67;14.27;;;2.30;99.90;;;;;;4923093;29;20536;-77
2022/01/21 08:46:35;;;;;;;14.90;13.40;;;2.30;99.90;;;;;;4924307;29;20436;-77
2022/01/21 08:49:07;;;;;;;14.20;13.20;;;2.40;99.90;;;;;;4930199;29;20455;-77
2022/01/21 08:51:46;;;;;;;13.80;12.80;;;2.40;99.90;;;;;;4923136;29;20450;-77
2022/01/21 08:54:13;;;;;;;14.43;13.23;;;2.40;99.90;;;;;;4924556;29;20956;-77
2022/01/21 08:56:40;;;;;;;14.37;13.13;;;2.40;99.90;;;;;;4907635;29;20815;-77
2022/01/21 08:59:07;;;;;;;14.40;13.23;;;2.50;99.90;;;;;;4908994;29;20546;-77
2022/01/21 09:01:36;;;;;;;16.33;13.70;;;2.60;99.90;;;;;;4921939;29;20262;-76
2022/01/21 09:04:04;;;;;;;15.63;14.00;;;2.80;99.90;;;;;;4919578;29;20474;-76
2022/01/21 09:06:31;;;;;;;15.90;14.47;;;3.00;99.90;;;;;;4923737;29;20204;-77
2022/01/21 09:08:58;;;;;;;15.50;14.10;;;3.50;99.90;;;;;;4905652;29;20234;-77
2022/01/21 09:11:25;;;;;;;13.60;11.83;;;3.70;99.90;;;;;;4901581;29;20218;-77
2022/01/21 09:13:52;;;;;;;13.13;12.03;;;3.90;99.90;;;;;;4926719;29;20196;-76
2022/01/21 09:16:19;;;;;;;16.10;14.53;;;3.90;99.90;;;;;;4904804;29;20211;-75
2022/01/21 09:18:51;;;;;;;13.80;12.40;;;3.80;99.90;;;;;;4921917;29;20251;-77
2022/01/21 09:21:20;;;;;;;14.93;13.57;;;3.80;99.90;;;;;;4908264;29;20572;-77
2022/01/21 09:23:49;;;;;;;13.67;12.37;;;3.70;99.90;;;;;;4905976;29;20207;-76
2022/01/21 09:26:17;;;;;;;13.40;12.20;;;3.50;99.90;;;;;;4907285;29;20211;-77
2022/01/21 09:28:44;;;;;;;13.00;11.53;;;3.40;99.90;;;;;;4922789;29;20716;-76
2022/01/21 09:31:12;;;;;;;13.63;12.20;;;3.30;99.90;;;;;;4915047;29;20203;-76
2022/01/21 09:33:40;;;;;;;12.77;11.83;;;3.30;99.90;;;;;;4932511;29;20214;-76
2022/01/21 09:36:09;;;;;;;14.50;13.03;;;3.30;99.90;;;;;;4934154;29;20200;-77
2022/01/21 09:38:36;;;;;;;12.87;11.67;;;3.20;99.90;;;;;;4916693;29;20231;-77
2022/01/21 09:41:04;;;;;;;12.93;11.73;;;3.20;99.90;;;;;;4934069;29;20199;-77
2022/01/21 09:43:33;;;;;;;13.73;12.57;;;3.20;99.90;;;;;;4934159;29;20736;-76
2022/01/21 09:46:05;;;;;;;13.40;12.40;;;3.10;99.90;;;;;;4927788;29;20224;-77
2022/01/21 09:48:37;;;;;;;13.13;12.00;;;3.10;99.90;;;;;;4905542;29;20238;-77
2022/01/21 09:51:06;;;;;;;15.37;12.80;;;3.10;99.90;;;;;;4905904;29;20227;-76
2022/01/21 09:53:36;;;;;;;13.97;12.67;;;3.20;99.90;;;;;;4925900;29;20219;-77
2022/01/21 09:56:06;;;;;;;12.70;11.50;;;3.30;99.90;;;;;;4919870;29;20200;-77
2022/01/21 09:58:33;;;;;;;12.90;11.90;;;3.20;99.90;;;;;;4910207;29;20230;-77
2022/01/21 10:01:05;;;;;;;13.50;12.23;;;3.30;99.90;;;;;;4909081;29;20204;-76
2022/01/21 10:03:33;;;;;;;13.03;11.63;;;3.40;99.90;;;;;;4913186;29;20696;-77
2022/01/21 10:06:01;;;;;;;14.07;12.50;;;3.50;99.90;;;;;;4929091;29;20223;-77
2022/01/21 10:08:29;;;;;;;13.13;11.93;;;3.60;99.90;;;;;;4916442;29;20294;-76
2022/01/21 10:10:57;;;;;;;13.37;12.27;;;3.60;99.90;;;;;;4908880;29;20208;-77
2022/01/21 10:13:24;;;;;;;13.77;11.87;;;3.70;99.90;;;;;;4928615;29;20565;-77
2022/01/21 10:15:51;;;;;;;12.30;11.40;;;3.80;99.90;;;;;;4925852;29;20207;-77
2022/01/21 10:18:19;;;;;;;13.43;12.13;;;3.90;99.90;;;;;;4927764;29;20219;-76
2022/01/21 10:21:01;;;;;;;13.13;11.70;;;3.90;99.90;;;;;;4908455;29;20348;-77
2022/01/21 10:23:30;;;;;;;13.60;12.20;;;3.90;99.90;;;;;;4921097;29;20687;-76
2022/01/21 10:26:03;;;;;;;13.53;12.43;;;4.00;99.90;;;;;;4911674;29;20261;-77
2022/01/21 10:28:31;;;;;;;13.60;12.30;;;4.00;99.90;;;;;;4916509;29;20222;-77
2022/01/21 10:31:12;;;;;;;14.57;10.80;;;4.10;99.90;;;;;;4925212;29;20669;-76
2022/01/21 10:33:43;;;;;;;12.70;11.17;;;4.10;99.90;;;;;;4919479;29;20207;-77
2022/01/21 10:36:16;;;;;;;13.20;11.90;;;4.00;99.90;;;;;;4926550;29;20192;-77
2022/01/21 10:38:46;;;;;;;15.50;10.20;;;3.90;99.90;;;;;;4918359;29;20261;-76
2022/01/21 10:41:17;;;;;;;11.43;10.07;;;3.90;99.90;;;;;;4924800;29;20201;-76
2022/01/21 10:43:44;;;;;;;16.00;11.57;;;3.90;99.90;;;;;;4907275;29;20211;-77
2022/01/21 10:46:16;;;;;;;12.07;10.97;;;4.00;99.90;;;;;;4910218;29;20227;-76
2022/01/21 10:48:59;;;;;;;12.40;11.20;;;4.10;99.90;;;;;;4930661;29;20767;-76
2022/01/21 10:51:28;;;;;;;12.80;11.70;;;4.30;99.90;;;;;;4930677;29;20258;-77
2022/01/21 10:53:55;;;;;;;13.63;11.80;;;4.40;99.90;;;;;;4928335;29;20196;-76
2022/01/21 10:56:25;;;;;;;12.93;11.83;;;4.50;99.90;;;;;;4923911;29;20888;-76
2022/01/21 10:58:54;;;;;;;15.47;11.80;;;4.60;99.90;;;;;;4923751;29;20752;-77
2022/01/21 11:01:25;;;;;;;13.73;12.13;;;4.70;99.90;;;;;;4909084;29;20994;-77
2022/01/21 11:04:13;;;;;;;13.30;12.00;;;4.70;99.90;;;;;;4925074;29;20668;-77
2022/01/21 11:06:51;;;;;;;12.77;11.70;;;4.80;99.90;;;;;;4911624;29;20251;-77
2022/01/21 11:09:21;;;;;;;12.40;11.30;;;4.80;99.90;;;;;;4917280;29;20196;-77
2022/01/21 11:12:07;;;;;;;13.47;11.70;;;4.70;99.90;;;;;;4899861;29;20204;-76
2022/01/21 11:14:35;;;;;;;12.77;11.67;;;4.70;99.90;;;;;;4917151;29;20189;-77
2022/01/21 11:17:07;;;;;;;12.10;11.20;;;4.70;99.90;;;;;;4899332;29;20294;-77
2022/01/21 11:19:35;;;;;;;13.13;11.77;;;4.60;99.90;;;;;;4919910;29;20203;-76
2022/01/21 11:22:05;;;;;;;14.63;12.60;;;4.50;99.90;;;;;;4920298;29;20196;-77
2022/01/21 11:24:33;;;;;;;12.77;11.87;;;4.40;99.90;;;;;;4924508;29;20688;-77
2022/01/21 11:27:10;;;;;;;12.80;11.70;;;4.20;99.90;;;;;;4922464;29;20255;-77
2022/01/21 11:29:37;;;;;;;12.40;11.40;;;4.10;99.90;;;;;;4917865;29;20199;-76
2022/01/21 11:32:05;;;;;;;13.23;11.93;;;4.00;99.90;;;;;;4907904;29;20223;-76
2022/01/21 11:34:32;;;;;;;13.30;11.60;;;4.00;99.90;;;;;;4925959;29;20212;-76
2022/01/21 11:37:00;;;;;;;12.90;11.70;;;4.00;99.90;;;;;;4925412;29;20191;-77
2022/01/21 11:39:27;;;;;;;12.33;11.33;;;4.00;99.90;;;;;;4920443;29;20223;-76
2022/01/21 11:41:57;;;;;;;14.50;11.87;;;4.00;99.90;;;;;;4919969;29;20212;-77
2022/01/21 11:44:27;;;;;;;11.97;11.07;;;3.90;99.90;;;;;;4907446;29;20199;-76
2022/01/21 11:47:03;;;;;;;16.90;11.80;;;3.90;99.90;;;;;;4906965;29;20662;-76
2022/01/21 11:49:32;;;;;;;12.23;11.07;;;3.90;99.90;;;;;;4916724;29;20199;-77
2022/01/21 11:52:11;;;;;;;12.20;11.00;;;3.90;99.90;;;;;;4924318;29;20192;-76
2022/01/21 11:54:39;;;;;;;12.93;11.70;;;4.00;99.90;;;;;;4922481;29;20255;-76
2022/01/21 11:57:06;;;;;;;12.53;11.43;;;4.00;99.90;;;;;;4926133;29;20251;-76
2022/01/21 11:59:42;;;;;;;13.40;11.73;;;4.00;99.90;;;;;;4922541;29;20206;-77
2022/01/21 12:02:22;;;;;;;12.90;11.70;;;4.10;99.90;;;;;;4918089;29;20231;-77
2022/01/21 12:04:50;;;;;;;14.23;12.97;;;4.20;99.90;;;;;;4920155;29;20251;-77
2022/01/21 12:07:54;;;;;;;13.00;11.70;;;4.20;99.90;;;;;;4906565;29;20254;-76
2022/01/21 12:10:42;;;;;;;13.57;12.37;;;4.20;99.90;;;;;;4926170;29;20207;-77
2022/01/21 12:13:18;;;;;;;14.07;12.33;;;4.30;99.90;;;;;;4922332;29;20199;-77
2022/01/21 12:16:21;;;;;;;13.50;12.17;;;4.30;99.90;;;;;;4924793;29;20199;-77
2022/01/21 12:21:50;;;;;;;13.13;11.83;;;4.50;99.90;;;;;;4918665;29;20191;-77
2022/01/21 12:24:37;;;;;;;12.37;11.20;;;4.40;99.90;;;;;;4907668;29;20204;-76
2022/01/21 12:27:09;;;;;;;12.30;11.03;;;4.40;99.90;;;;;;4923585;29;20717;-77
2022/01/21 12:29:36;;;;;;;12.70;11.57;;;4.40;99.90;;;;;;4916497;29;20196;-77
2022/01/21 12:32:13;;;;;;;12.43;11.53;;;4.40;99.90;;;;;;4923616;29;20614;-77
2022/01/21 12:35:19;;;;;;;13.50;10.90;;;4.50;99.90;;;;;;4923309;29;20208;-76
2022/01/21 12:41:30;;;;;;;12.73;11.07;;;4.50;99.90;;;;;;4887962;29;20212;-77
2022/01/21 12:43:59;;;;;;;12.73;11.63;;;4.40;99.90;;;;;;4918359;29;20200;-77
2022/01/21 12:46:31;;;;;;;11.80;10.80;;;4.30;99.90;;;;;;4927558;29;20219;-77
2022/01/21 12:49:01;;;;;;;12.13;10.93;;;4.30;99.90;;;;;;4918132;29;20279;-77
2022/01/21 12:52:12;;;;;;;12.43;11.00;;;4.40;99.90;;;;;;4922316;29;20219;-76
2022/01/21 12:57:28;;;;;;;10.77;9.97;;;4.30;99.90;;;;;;4900781;29;20357;-77
2022/01/21 13:00:00;;;;;;;10.63;9.77;;;4.40;99.90;;;;;;4910241;29;20227;-77
2022/01/21 13:05:47;;;;;;;11.60;10.70;;;4.40;99.90;;;;;;4913807;29;20226;-76
2022/01/21 13:08:28;;;;;;;12.00;10.90;;;4.30;99.90;;;;;;4925184;29;20233;-77
2022/01/21 13:10:55;;;;;;;12.57;11.50;;;4.30;99.90;;;;;;4906367;29;20203;-75
2022/01/21 13:13:34;;;;;;;11.73;10.83;;;4.30;99.90;;;;;;4918806;29;20669;-76
2022/01/21 13:16:01;;;;;;;11.40;10.57;;;4.30;99.90;;;;;;4925289;29;20207;-77
2022/01/21 13:18:32;;;;;;;13.97;11.10;;;4.20;99.90;;;;;;4914122;29;20226;-77
2022/01/21 13:21:05;;;;;;;11.80;10.80;;;4.30;99.90;;;;;;4922101;29;20238;-77
2022/01/21 13:23:35;;;;;;;12.60;11.10;;;4.30;99.90;;;;;;4923341;29;20196;-77
2022/01/21 13:26:17;;;;;;;12.00;10.90;;;4.30;99.90;;;;;;4922791;29;20690;-76
2022/01/21 13:28:55;;;;;;;11.53;10.10;;;4.30;99.90;;;;;;4917231;29;20636;-77
2022/01/21 13:31:22;;;;;;;11.23;10.10;;;4.30;99.90;;;;;;4909387;29;20211;-77
2022/01/21 13:33:50;;;;;;;11.73;10.50;;;4.40;99.90;;;;;;4925426;29;20214;-76
2022/01/21 13:36:49;;;;;;;12.20;11.10;;;4.40;99.90;;;;;;4922169;29;20200;-77
2022/01/21 13:39:18;;;;;;;11.30;10.30;;;4.40;99.90;;;;;;4922182;29;20208;-77
2022/01/21 13:42:05;;;;;;;11.70;10.80;;;4.40;99.90;;;;;;4929640;29;20199;-77
2022/01/21 13:44:42;;;;;;;12.00;10.87;;;4.40;99.90;;;;;;4917577;29;20711;-77
2022/01/21 13:47:28;;;;;;;12.50;10.93;;;4.40;99.90;;;;;;4924289;29;20239;-77
2022/01/21 13:49:58;;;;;;;12.33;11.17;;;4.40;99.90;;;;;;4925081;29;20200;-77